createdAt,value
2023-05-06T00:00:14.614Z,13.17
2023-05-06T00:03:20.170Z,13.12
2023-05-06T00:06:22.465Z,13.15
2023-05-06T00:09:24.929Z,13.14
2023-05-06T00:12:27.603Z,13.15
2023-05-06T00:15:31.559Z,13.14
2023-05-06T00:18:36.212Z,13.15
2023-05-06T00:21:41.376Z,13.15
2023-05-06T00:24:43.491Z,13.15
2023-05-06T00:27:45.701Z,13.12
2023-05-06T00:30:49.601Z,13.13
2023-05-06T00:33:54.357Z,13.12
2023-05-06T00:36:58.368Z,13.12
2023-05-06T00:40:01.101Z,13.11
2023-05-06T00:43:07.246Z,13.10
2023-05-06T00:46:13.941Z,13.07
2023-05-06T00:49:16.167Z,13.05
2023-05-06T00:52:20.204Z,12.96
2023-05-06T00:55:22.358Z,12.96
2023-05-06T00:58:25.030Z,12.92
2023-05-06T01:01:30.777Z,12.91
2023-05-06T01:04:36.419Z,12.89
2023-05-06T01:08:11.524Z,12.88
2023-05-06T01:11:17.743Z,12.86
2023-05-06T01:14:33.765Z,12.87
2023-05-06T01:17:42.341Z,12.85
2023-05-06T01:20:50.160Z,12.85
2023-05-06T01:23:52.547Z,12.85
2023-05-06T01:26:54.636Z,12.86
2023-05-06T01:29:58.458Z,12.86
2023-05-06T01:33:29.575Z,12.84
2023-05-06T01:37:17.253Z,12.85
2023-05-06T01:40:23.774Z,12.89
2023-05-06T01:43:29.586Z,12.90
2023-05-06T01:46:35.082Z,12.89
2023-05-06T01:49:37.474Z,12.88
2023-05-06T01:52:39.737Z,12.92
2023-05-06T01:55:41.926Z,12.92
2023-05-06T01:58:44.008Z,12.91
2023-05-06T02:01:46.120Z,12.90
2023-05-06T02:04:48.335Z,12.89
2023-05-06T02:07:50.490Z,12.83
2023-05-06T02:10:52.595Z,12.80
2023-05-06T02:13:55.915Z,12.79
2023-05-06T02:17:06.157Z,12.77
2023-05-06T02:20:11.184Z,12.73
2023-05-06T02:23:14.718Z,12.69
2023-05-06T02:26:16.762Z,12.65
2023-05-06T02:29:18.846Z,12.61
2023-05-06T02:32:21.070Z,12.56
2023-05-06T02:35:23.509Z,12.57
2023-05-06T02:38:25.833Z,12.56
2023-05-06T02:41:28.358Z,12.54
2023-05-06T02:44:30.674Z,12.50
2023-05-06T02:47:34.136Z,12.48
2023-05-06T02:50:36.267Z,12.46
2023-05-06T02:53:40.993Z,12.43
2023-05-06T02:56:43.325Z,12.41
2023-05-06T02:59:45.861Z,12.37
2023-05-06T03:02:51.480Z,12.33
2023-05-06T03:05:53.064Z,12.30
2023-05-06T03:08:55.572Z,12.26
2023-05-06T03:11:57.594Z,12.18
2023-05-06T03:14:59.963Z,12.15
2023-05-06T03:18:02.415Z,12.11
2023-05-06T03:21:05.814Z,12.08
2023-05-06T03:24:17.025Z,12.01
2023-05-06T03:27:19.249Z,11.96
2023-05-06T03:30:25.431Z,11.89
2023-05-06T03:33:30.765Z,11.86
2023-05-06T03:36:34.377Z,11.79
2023-05-06T03:39:36.936Z,11.75
2023-05-06T03:42:40.296Z,11.69
2023-05-06T03:45:43.692Z,11.65
2023-05-06T03:48:46.074Z,11.59
2023-05-06T03:51:53.982Z,11.51
2023-05-06T03:54:58.813Z,11.49
2023-05-06T03:58:02.530Z,11.46
2023-05-06T04:01:04.506Z,11.42
2023-05-06T04:04:09.663Z,11.40
2023-05-06T04:07:12.534Z,11.37
2023-05-06T04:10:15.205Z,11.32
2023-05-06T04:13:23.041Z,11.33
2023-05-06T04:16:25.184Z,11.34
2023-05-06T04:19:27.670Z,11.33
2023-05-06T04:22:29.351Z,11.30
2023-05-06T04:25:32.846Z,11.27
2023-05-06T04:28:35.308Z,11.30
2023-05-06T04:31:40.306Z,11.25
2023-05-06T04:34:47.407Z,11.28
2023-05-06T04:37:51.288Z,11.32
2023-05-06T04:41:01.615Z,11.33
2023-05-06T04:44:04.822Z,11.34
2023-05-06T04:47:08.188Z,11.37
2023-05-06T04:50:10.885Z,11.35
2023-05-06T04:53:13.708Z,11.38
2023-05-06T04:56:16.566Z,11.39
2023-05-06T04:59:25.405Z,11.42
2023-05-06T05:02:27.570Z,11.39
2023-05-06T05:05:34.339Z,11.45
2023-05-06T05:08:46.158Z,11.45
2023-05-06T05:11:49.523Z,11.48
2023-05-06T05:14:51.313Z,11.52
2023-05-06T05:17:54.249Z,11.56
2023-05-06T05:20:58.694Z,11.63
2023-05-06T05:24:02.547Z,11.72
2023-05-06T05:27:08.978Z,11.79
2023-05-06T05:30:11.473Z,11.89
2023-05-06T05:33:14.328Z,11.95
2023-05-06T05:36:17.845Z,12.01
2023-05-06T05:39:21.864Z,12.09
2023-05-06T05:42:24.080Z,12.15
2023-05-06T05:45:27.116Z,12.20
2023-05-06T05:48:32.641Z,12.26
2023-05-06T05:51:35.912Z,12.28
2023-05-06T05:54:40.020Z,12.33
2023-05-06T05:57:42.726Z,12.36
2023-05-06T06:00:45.253Z,12.39
2023-05-06T06:03:54.504Z,12.45
2023-05-06T06:06:58.149Z,12.51
2023-05-06T06:10:00.584Z,12.53
2023-05-06T06:13:03.055Z,12.63
2023-05-06T06:16:07.798Z,12.66
2023-05-06T06:19:10.051Z,12.69
2023-05-06T06:22:11.916Z,12.78
2023-05-06T06:25:14.584Z,12.81
2023-05-06T06:28:16.977Z,12.91
2023-05-06T06:31:20.458Z,12.98
2023-05-06T06:34:24.533Z,13.03
2023-05-06T06:37:27.692Z,13.14
2023-05-06T06:40:36.142Z,13.23
2023-05-06T06:43:43.693Z,13.31
2023-05-06T06:46:56.894Z,13.38
2023-05-06T06:50:00.300Z,13.49
2023-05-06T06:53:06.633Z,13.52
2023-05-06T06:56:11.951Z,13.63
2023-05-06T06:59:17.000Z,13.69
2023-05-06T07:02:23.522Z,13.73
2023-05-06T07:05:26.909Z,13.78
2023-05-06T07:08:28.581Z,13.84
2023-05-06T07:11:30.211Z,13.90
2023-05-06T07:14:32.189Z,13.92
2023-05-06T07:17:34.441Z,13.99
2023-05-06T07:20:39.051Z,14.06
2023-05-06T07:23:41.400Z,14.15
2023-05-06T07:26:43.900Z,14.19
2023-05-06T07:29:46.645Z,14.28
2023-05-06T07:32:50.610Z,14.34
2023-05-06T07:35:56.417Z,14.42
2023-05-06T07:39:01.557Z,14.50
2023-05-06T07:42:06.707Z,14.57
2023-05-06T07:45:12.252Z,14.69
2023-05-06T07:48:21.347Z,14.74
2023-05-06T07:51:30.367Z,14.74
2023-05-06T07:54:33.963Z,14.76
2023-05-06T07:57:38.531Z,14.78
2023-05-06T08:00:42.208Z,14.75
2023-05-06T08:03:44.464Z,14.85
2023-05-06T08:06:48.173Z,14.93
2023-05-06T08:09:50.753Z,14.98
2023-05-06T08:12:52.911Z,15.09
2023-05-06T08:15:54.715Z,15.21
2023-05-06T08:18:56.774Z,15.32
2023-05-06T08:21:58.705Z,15.41
2023-05-06T08:25:01.321Z,15.38
2023-05-06T08:28:04.830Z,15.28
2023-05-06T08:31:06.982Z,15.26
2023-05-06T08:34:09.289Z,15.30
2023-05-06T08:37:11.174Z,15.35
2023-05-06T08:40:22.429Z,15.41
2023-05-06T08:43:28.489Z,15.38
2023-05-06T08:46:31.125Z,15.39
2023-05-06T08:49:33.441Z,15.42
2023-05-06T08:52:37.137Z,15.45
2023-05-06T08:55:40.900Z,15.46
2023-05-06T08:58:49.287Z,15.48
2023-05-06T09:01:52.326Z,15.54
2023-05-06T09:04:55.043Z,15.56
2023-05-06T09:07:57.280Z,15.55
2023-05-06T09:10:58.968Z,15.61
2023-05-06T09:14:10.260Z,15.70
2023-05-06T09:17:24.526Z,15.70
2023-05-06T09:20:29.547Z,15.73
2023-05-06T09:23:32.000Z,15.81
2023-05-06T09:26:36.101Z,15.86
2023-05-06T09:29:39.361Z,15.90
2023-05-06T09:32:44.035Z,15.94
2023-05-06T09:35:49.963Z,16.00
2023-05-06T09:38:54.868Z,16.13
2023-05-06T09:41:57.548Z,16.29
2023-05-06T09:45:02.200Z,16.38
2023-05-06T09:48:09.128Z,16.48
2023-05-06T09:51:11.025Z,16.53
2023-05-06T09:54:15.893Z,16.56
2023-05-06T09:57:18.500Z,16.53
2023-05-06T10:00:26.835Z,16.54
2023-05-06T10:03:29.614Z,16.52
2023-05-06T10:06:36.118Z,16.54
2023-05-06T10:09:41.882Z,16.59
2023-05-06T10:12:44.794Z,16.60
2023-05-06T10:15:49.208Z,16.66
2023-05-06T10:18:55.391Z,16.77
2023-05-06T10:22:21.052Z,16.90
2023-05-06T10:25:49.273Z,16.98
2023-05-06T10:28:53.483Z,16.99
2023-05-06T10:31:57.744Z,17.03
2023-05-06T10:35:11.497Z,17.04
2023-05-06T10:38:23.822Z,17.08
2023-05-06T10:41:28.260Z,17.12
2023-05-06T10:45:03.945Z,17.12
2023-05-06T10:48:09.724Z,17.15
2023-05-06T10:51:17.591Z,17.20
2023-05-06T10:54:20.885Z,17.27
2023-05-06T10:57:29.114Z,17.32
2023-05-06T11:00:35.591Z,17.41
2023-05-06T11:03:37.838Z,17.46
2023-05-06T11:06:44.126Z,17.52
2023-05-06T11:10:01.681Z,17.50
2023-05-06T11:13:23.604Z,17.50
2023-05-06T11:16:51.742Z,17.58
2023-05-06T11:20:20.319Z,17.69
2023-05-06T11:23:22.462Z,17.76
2023-05-06T11:26:25.064Z,17.87
2023-05-06T11:29:27.949Z,17.87
2023-05-06T11:32:30.675Z,17.85
2023-05-06T11:35:38.589Z,17.86
2023-05-06T11:38:45.578Z,17.94
2023-05-06T11:41:48.986Z,17.99
2023-05-06T11:44:54.356Z,18.01
2023-05-06T11:47:57.275Z,17.98
2023-05-06T11:51:00.083Z,17.98
2023-05-06T11:54:09.225Z,17.93
2023-05-06T11:57:11.718Z,17.93
2023-05-06T12:00:14.769Z,17.95
2023-05-06T12:03:16.492Z,18.02
2023-05-06T12:06:22.099Z,18.07
2023-05-06T12:09:26.436Z,18.21
2023-05-06T12:12:28.249Z,18.27
2023-05-06T12:15:30.730Z,18.34
2023-05-06T12:18:32.626Z,18.48
2023-05-06T12:21:38.993Z,18.60
2023-05-06T12:24:41.141Z,18.76
2023-05-06T12:27:42.750Z,18.89
2023-05-06T12:30:45.942Z,19.05
2023-05-06T12:33:50.605Z,19.14
2023-05-06T12:36:52.940Z,19.17
2023-05-06T12:39:57.833Z,19.23
2023-05-06T12:43:04.028Z,19.32
2023-05-06T12:46:08.124Z,19.36
2023-05-06T12:49:09.749Z,19.42
2023-05-06T12:52:11.748Z,19.44
2023-05-06T12:55:14.190Z,19.49
2023-05-06T12:58:18.492Z,19.60
2023-05-06T13:01:22.090Z,19.70
2023-05-06T13:04:24.979Z,19.78
2023-05-06T13:07:27.072Z,19.94
2023-05-06T13:10:29.259Z,20.05
2023-05-06T13:13:31.954Z,20.10
2023-05-06T13:16:35.404Z,20.22
2023-05-06T13:19:37.819Z,20.38
2023-05-06T13:22:53.178Z,20.56
2023-05-06T13:26:04.147Z,20.74
2023-05-06T13:29:08.960Z,20.76
2023-05-06T13:32:11.053Z,20.82
2023-05-06T13:35:13.211Z,20.98
2023-05-06T13:38:15.427Z,21.05
2023-05-06T13:41:17.668Z,21.02
2023-05-06T13:44:21.463Z,20.90
2023-05-06T13:47:23.885Z,20.80
2023-05-06T13:50:26.016Z,20.76
2023-05-06T13:53:28.179Z,20.83
2023-05-06T13:56:29.845Z,20.96
2023-05-06T13:59:31.589Z,21.22
2023-05-06T14:02:36.189Z,21.31
2023-05-06T14:05:38.290Z,21.52
2023-05-06T14:08:41.522Z,21.69
2023-05-06T14:11:43.654Z,21.84
2023-05-06T14:14:45.760Z,22.04
2023-05-06T14:17:48.175Z,22.06
2023-05-06T14:20:49.787Z,22.00
2023-05-06T14:23:52.342Z,22.09
2023-05-06T14:26:55.061Z,22.27
2023-05-06T14:29:57.547Z,22.50
2023-05-06T14:33:00.696Z,22.74
2023-05-06T14:36:03.534Z,22.98
2023-05-06T14:39:05.688Z,23.09
2023-05-06T14:42:08.045Z,23.15
2023-05-06T14:45:10.894Z,23.21
2023-05-06T14:48:12.816Z,23.33
2023-05-06T14:51:15.365Z,23.47
2023-05-06T14:54:17.557Z,23.63
2023-05-06T14:57:19.819Z,23.88
2023-05-06T15:00:21.877Z,23.98
2023-05-06T15:03:24.004Z,24.16
2023-05-06T15:06:26.356Z,24.24
2023-05-06T15:09:28.699Z,24.25
2023-05-06T15:12:33.505Z,24.42
2023-05-06T15:15:38.636Z,24.52
2023-05-06T15:18:41.965Z,24.65
2023-05-06T15:21:44.156Z,24.82
2023-05-06T15:24:46.340Z,25.06
2023-05-06T15:27:49.204Z,25.22
2023-05-06T15:30:51.297Z,25.20
2023-05-06T15:33:52.938Z,24.99
2023-05-06T15:36:58.839Z,24.81
2023-05-06T15:40:03.182Z,24.55
2023-05-06T15:43:05.649Z,24.22
2023-05-06T15:46:08.145Z,24.03
2023-05-06T15:52:17.340Z,23.68
2023-05-06T15:55:19.648Z,23.44
2023-05-06T15:58:23.306Z,23.22
2023-05-06T16:01:45.082Z,23.08
2023-05-06T16:04:48.677Z,22.94
2023-05-06T16:07:52.173Z,22.83
2023-05-06T16:10:54.349Z,22.77
2023-05-06T16:13:56.608Z,22.73
2023-05-06T16:16:59.208Z,22.76
2023-05-06T16:20:01.384Z,22.70
2023-05-06T16:23:03.332Z,22.57
2023-05-06T16:26:06.754Z,22.52
2023-05-06T16:29:08.912Z,22.48
2023-05-06T16:32:12.626Z,22.30
2023-05-06T16:35:19.500Z,22.20
2023-05-06T16:38:25.191Z,22.06
2023-05-06T16:41:27.004Z,21.92
2023-05-06T16:47:49.435Z,21.68
2023-05-06T16:50:53.241Z,21.63
2023-05-06T16:53:59.997Z,21.49
2023-05-06T16:57:04.090Z,21.38
2023-05-06T17:00:17.367Z,21.24
2023-05-06T17:03:19.993Z,21.13
2023-05-06T17:06:30.850Z,21.01
2023-05-06T17:09:33.683Z,20.97
2023-05-06T17:12:44.296Z,20.87
2023-05-06T17:15:48.745Z,20.78
2023-05-06T17:18:51.317Z,20.68
2023-05-06T17:21:58.199Z,20.60
2023-05-06T17:24:59.845Z,20.48
2023-05-06T17:28:03.309Z,20.39
2023-05-06T17:31:13.442Z,20.32
2023-05-06T17:34:15.674Z,20.24
2023-05-06T17:37:17.861Z,20.18
2023-05-06T17:40:19.460Z,20.12
2023-05-06T17:43:23.353Z,20.03
2023-05-06T17:46:26.928Z,19.93
2023-05-06T17:49:29.644Z,19.82
2023-05-06T17:52:33.588Z,19.72
2023-05-06T17:55:35.816Z,19.57
2023-05-06T17:58:37.458Z,19.46
2023-05-06T18:01:40.147Z,19.32
2023-05-06T18:04:43.565Z,19.18
2023-05-06T18:07:45.920Z,19.04
2023-05-06T18:10:51.977Z,18.90
2023-05-06T18:13:54.025Z,18.76
2023-05-06T18:16:56.216Z,18.61
2023-05-06T18:19:58.408Z,18.48
2023-05-06T18:23:03.639Z,18.31
2023-05-06T18:26:06.290Z,18.20
2023-05-06T18:29:07.973Z,18.07
2023-05-06T18:32:10.404Z,17.92
2023-05-06T18:35:14.812Z,17.80
2023-05-06T18:38:17.064Z,17.66
2023-05-06T18:41:28.170Z,17.55
2023-05-06T18:44:30.762Z,17.43
2023-05-06T18:47:35.998Z,17.29
2023-05-06T18:50:38.491Z,17.19
2023-05-06T18:53:43.381Z,17.11
2023-05-06T18:56:45.523Z,17.02
2023-05-06T18:59:48.667Z,16.90
2023-05-06T19:02:50.563Z,16.85
2023-05-06T19:05:52.583Z,16.77
2023-05-06T19:08:54.683Z,16.70
2023-05-06T19:11:56.409Z,16.62
2023-05-06T19:14:58.409Z,16.56
2023-05-06T19:18:00.508Z,16.47
2023-05-06T19:21:02.630Z,16.42
2023-05-06T19:24:06.358Z,16.36
2023-05-06T19:27:08.508Z,16.30
2023-05-06T19:30:11.730Z,16.20
2023-05-06T19:33:14.468Z,16.14
2023-05-06T19:36:16.775Z,16.10
2023-05-06T19:39:25.777Z,15.99
2023-05-06T19:42:28.251Z,15.96
2023-05-06T19:45:32.459Z,15.89
2023-05-06T19:48:35.572Z,15.83
2023-05-06T19:51:39.275Z,15.77
2023-05-06T19:54:42.208Z,15.73
2023-05-06T19:57:46.719Z,15.69
2023-05-06T20:00:49.613Z,15.63
2023-05-06T20:03:51.541Z,15.58
2023-05-06T20:06:53.648Z,15.53
2023-05-06T20:09:56.861Z,15.47
2023-05-06T20:13:02.402Z,15.47
2023-05-06T20:16:04.797Z,15.41
2023-05-06T20:19:07.902Z,15.35
2023-05-06T20:22:09.593Z,15.33
2023-05-06T20:25:18.909Z,15.27
2023-05-06T20:28:20.626Z,15.21
2023-05-06T20:31:22.804Z,15.17
2023-05-06T20:34:24.419Z,15.11
2023-05-06T20:37:26.590Z,15.07
2023-05-06T20:40:29.297Z,14.98
2023-05-06T20:43:31.654Z,14.95
2023-05-06T20:46:36.787Z,14.91
2023-05-06T20:49:39.785Z,14.84
2023-05-06T20:52:42.319Z,14.79
2023-05-06T20:55:43.969Z,14.69
2023-05-06T20:58:46.120Z,14.67
2023-05-06T21:01:47.769Z,14.62
2023-05-06T21:04:49.439Z,14.56
2023-05-06T21:07:51.708Z,14.51
2023-05-06T21:10:53.746Z,14.48
2023-05-06T21:13:55.550Z,14.41
2023-05-06T21:16:58.107Z,14.37
2023-05-06T21:20:00.063Z,14.36
2023-05-06T21:23:04.178Z,14.32
2023-05-06T21:26:05.784Z,14.27
2023-05-06T21:29:07.806Z,14.26
2023-05-06T21:32:09.508Z,14.20
2023-05-06T21:35:11.490Z,14.20
2023-05-06T21:38:13.768Z,14.18
2023-05-06T21:41:16.608Z,14.19
2023-05-06T21:44:18.371Z,14.17
2023-05-06T21:47:20.517Z,14.18
2023-05-06T21:50:22.818Z,14.17
2023-05-06T21:53:25.223Z,14.15
2023-05-06T21:56:26.941Z,14.15
2023-05-06T21:59:28.618Z,14.14
2023-05-06T22:02:30.725Z,14.12
2023-05-06T22:05:32.864Z,14.10
2023-05-06T22:08:34.935Z,14.08
2023-05-06T22:11:38.776Z,14.05
2023-05-06T22:14:41.907Z,13.99
2023-05-06T22:17:44.115Z,13.98
2023-05-06T22:20:46.701Z,13.94
2023-05-06T22:23:49.748Z,13.87
2023-05-06T22:26:51.949Z,13.85
2023-05-06T22:29:53.620Z,13.80
2023-05-06T22:32:55.308Z,13.74
2023-05-06T22:35:57.547Z,13.68
2023-05-06T22:39:01.218Z,13.60
2023-05-06T22:42:04.530Z,13.57
2023-05-06T22:45:07.409Z,13.50
2023-05-06T22:48:10.912Z,13.46
2023-05-06T22:51:16.001Z,13.41
2023-05-06T22:54:18.533Z,13.37
2023-05-06T22:57:22.827Z,13.30
2023-05-06T23:00:25.027Z,13.26
2023-05-06T23:03:28.876Z,13.18
2023-05-06T23:06:31.148Z,13.19
2023-05-06T23:09:34.268Z,13.14
2023-05-06T23:12:36.025Z,13.08
2023-05-06T23:15:38.275Z,13.05
2023-05-06T23:18:40.747Z,12.99
2023-05-06T23:21:43.936Z,13.00
2023-05-06T23:24:46.409Z,12.95
2023-05-06T23:27:48.683Z,12.93
2023-05-06T23:30:50.895Z,12.86
2023-05-06T23:33:52.935Z,12.86
2023-05-06T23:36:56.634Z,12.83
2023-05-06T23:39:58.780Z,12.82
2023-05-06T23:43:00.849Z,12.76
2023-05-06T23:46:02.878Z,12.76
2023-05-06T23:49:05.894Z,12.72
2023-05-06T23:52:07.574Z,12.69
2023-05-06T23:55:10.119Z,12.69
2023-05-06T23:58:12.636Z,12.66
